sensor_id;sensor_type;location;lat;lon;timestamp;temperature;humidity
12156;DHT22;6141;49.092;8.516;2023-08-31T00:00:33;16.60;67.80
12156;DHT22;6141;49.092;8.516;2023-08-31T00:03:23;16.70;66.20
12156;DHT22;6141;49.092;8.516;2023-08-31T00:06:12;16.70;65.90
12156;DHT22;6141;49.092;8.516;2023-08-31T00:09:01;16.80;64.70
12156;DHT22;6141;49.092;8.516;2023-08-31T00:11:52;16.80;64.90
12156;DHT22;6141;49.092;8.516;2023-08-31T00:14:40;16.90;63.30
12156;DHT22;6141;49.092;8.516;2023-08-31T00:17:29;16.90;63.60
12156;DHT22;6141;49.092;8.516;2023-08-31T00:20:18;16.90;63.60
12156;DHT22;6141;49.092;8.516;2023-08-31T00:26:59;16.50;67.20
12156;DHT22;6141;49.092;8.516;2023-08-31T00:30:22;16.30;68.50
12156;DHT22;6141;49.092;8.516;2023-08-31T00:33:13;16.40;68.40
12156;DHT22;6141;49.092;8.516;2023-08-31T00:36:02;16.30;69.90
12156;DHT22;6141;49.092;8.516;2023-08-31T00:38:50;16.30;69.80
12156;DHT22;6141;49.092;8.516;2023-08-31T00:41:39;16.30;70.10
12156;DHT22;6141;49.092;8.516;2023-08-31T00:44:28;16.20;70.30
12156;DHT22;6141;49.092;8.516;2023-08-31T00:47:18;16.30;70.00
12156;DHT22;6141;49.092;8.516;2023-08-31T00:50:08;16.20;71.20
12156;DHT22;6141;49.092;8.516;2023-08-31T00:52:57;16.20;71.80
12156;DHT22;6141;49.092;8.516;2023-08-31T00:55:46;16.20;71.00
12156;DHT22;6141;49.092;8.516;2023-08-31T00:58:35;16.00;72.20
12156;DHT22;6141;49.092;8.516;2023-08-31T01:01:29;16.10;72.90
12156;DHT22;6141;49.092;8.516;2023-08-31T01:04:26;16.00;74.30
12156;DHT22;6141;49.092;8.516;2023-08-31T01:07:23;16.10;73.80
12156;DHT22;6141;49.092;8.516;2023-08-31T01:10:20;16.20;72.30
12156;DHT22;6141;49.092;8.516;2023-08-31T01:13:13;16.10;72.60
12156;DHT22;6141;49.092;8.516;2023-08-31T01:16:05;16.00;74.10
12156;DHT22;6141;49.092;8.516;2023-08-31T01:18:57;16.00;74.10
12156;DHT22;6141;49.092;8.516;2023-08-31T01:21:47;15.90;74.20
12156;DHT22;6141;49.092;8.516;2023-08-31T01:24:41;15.80;75.70
12156;DHT22;6141;49.092;8.516;2023-08-31T01:27:29;15.60;76.80
12156;DHT22;6141;49.092;8.516;2023-08-31T01:30:18;15.70;77.90
12156;DHT22;6141;49.092;8.516;2023-08-31T01:33:07;15.80;76.50
12156;DHT22;6141;49.092;8.516;2023-08-31T01:35:56;15.70;77.20
12156;DHT22;6141;49.092;8.516;2023-08-31T01:38:50;15.80;76.70
12156;DHT22;6141;49.092;8.516;2023-08-31T01:41:48;15.90;76.40
12156;DHT22;6141;49.092;8.516;2023-08-31T01:44:39;15.80;75.20
12156;DHT22;6141;49.092;8.516;2023-08-31T01:47:28;15.80;76.70
12156;DHT22;6141;49.092;8.516;2023-08-31T01:50:17;15.80;76.60
12156;DHT22;6141;49.092;8.516;2023-08-31T01:53:05;15.80;76.60
12156;DHT22;6141;49.092;8.516;2023-08-31T01:55:54;15.70;76.70
12156;DHT22;6141;49.092;8.516;2023-08-31T01:58:44;15.70;76.40
12156;DHT22;6141;49.092;8.516;2023-08-31T02:01:32;15.90;75.90
12156;DHT22;6141;49.092;8.516;2023-08-31T02:04:21;15.90;74.80
12156;DHT22;6141;49.092;8.516;2023-08-31T02:07:09;15.90;74.30
12156;DHT22;6141;49.092;8.516;2023-08-31T02:09:57;15.70;75.30
12156;DHT22;6141;49.092;8.516;2023-08-31T02:12:46;15.70;76.60
12156;DHT22;6141;49.092;8.516;2023-08-31T02:15:38;15.70;75.80
12156;DHT22;6141;49.092;8.516;2023-08-31T02:18:27;15.70;75.20
12156;DHT22;6141;49.092;8.516;2023-08-31T02:21:15;15.80;74.70
12156;DHT22;6141;49.092;8.516;2023-08-31T02:24:05;15.90;72.50
12156;DHT22;6141;49.092;8.516;2023-08-31T02:26:53;16.10;71.50
12156;DHT22;6141;49.092;8.516;2023-08-31T02:29:42;16.10;71.00
12156;DHT22;6141;49.092;8.516;2023-08-31T02:32:31;16.20;70.10
12156;DHT22;6141;49.092;8.516;2023-08-31T02:35:20;16.20;70.50
12156;DHT22;6141;49.092;8.516;2023-08-31T02:38:08;16.20;70.30
12156;DHT22;6141;49.092;8.516;2023-08-31T02:40:56;16.20;70.10
12156;DHT22;6141;49.092;8.516;2023-08-31T02:43:50;16.20;69.70
12156;DHT22;6141;49.092;8.516;2023-08-31T02:46:38;16.10;70.90
12156;DHT22;6141;49.092;8.516;2023-08-31T02:49:28;16.00;72.20
12156;DHT22;6141;49.092;8.516;2023-08-31T02:52:16;16.00;72.00
12156;DHT22;6141;49.092;8.516;2023-08-31T02:55:06;16.00;72.20
12156;DHT22;6141;49.092;8.516;2023-08-31T02:57:54;16.20;70.90
12156;DHT22;6141;49.092;8.516;2023-08-31T03:00:43;16.50;68.70
12156;DHT22;6141;49.092;8.516;2023-08-31T03:03:33;16.40;67.60
12156;DHT22;6141;49.092;8.516;2023-08-31T03:06:23;16.00;70.30
12156;DHT22;6141;49.092;8.516;2023-08-31T03:09:12;16.10;70.00
12156;DHT22;6141;49.092;8.516;2023-08-31T03:12:00;15.90;72.10
12156;DHT22;6141;49.092;8.516;2023-08-31T03:14:49;15.90;72.10
12156;DHT22;6141;49.092;8.516;2023-08-31T03:17:38;16.00;72.00
12156;DHT22;6141;49.092;8.516;2023-08-31T03:20:28;15.90;71.70
12156;DHT22;6141;49.092;8.516;2023-08-31T03:23:20;15.80;72.00
12156;DHT22;6141;49.092;8.516;2023-08-31T03:26:08;15.80;72.00
12156;DHT22;6141;49.092;8.516;2023-08-31T03:28:57;16.00;72.60
12156;DHT22;6141;49.092;8.516;2023-08-31T03:31:45;16.00;69.70
12156;DHT22;6141;49.092;8.516;2023-08-31T03:34:35;15.90;71.10
12156;DHT22;6141;49.092;8.516;2023-08-31T03:37:24;16.00;69.80
12156;DHT22;6141;49.092;8.516;2023-08-31T03:40:14;15.90;71.00
12156;DHT22;6141;49.092;8.516;2023-08-31T03:43:02;15.80;72.00
12156;DHT22;6141;49.092;8.516;2023-08-31T03:45:54;15.60;73.00
12156;DHT22;6141;49.092;8.516;2023-08-31T03:48:43;15.70;72.80
12156;DHT22;6141;49.092;8.516;2023-08-31T03:51:33;15.70;71.90
12156;DHT22;6141;49.092;8.516;2023-08-31T03:54:21;15.70;72.00
12156;DHT22;6141;49.092;8.516;2023-08-31T03:57:12;15.50;73.50
12156;DHT22;6141;49.092;8.516;2023-08-31T04:00:01;15.50;73.70
12156;DHT22;6141;49.092;8.516;2023-08-31T04:03:00;15.60;73.20
12156;DHT22;6141;49.092;8.516;2023-08-31T04:05:49;15.50;73.40
12156;DHT22;6141;49.092;8.516;2023-08-31T04:08:41;15.50;73.60
12156;DHT22;6141;49.092;8.516;2023-08-31T04:11:30;15.40;73.80
12156;DHT22;6141;49.092;8.516;2023-08-31T04:14:19;15.50;73.30
12156;DHT22;6141;49.092;8.516;2023-08-31T04:17:08;15.40;74.10
12156;DHT22;6141;49.092;8.516;2023-08-31T04:19:56;15.40;75.00
12156;DHT22;6141;49.092;8.516;2023-08-31T04:22:45;15.30;75.00
12156;DHT22;6141;49.092;8.516;2023-08-31T04:25:33;15.40;74.30
12156;DHT22;6141;49.092;8.516;2023-08-31T04:28:21;15.50;73.90
12156;DHT22;6141;49.092;8.516;2023-08-31T04:31:11;15.60;72.80
12156;DHT22;6141;49.092;8.516;2023-08-31T04:33:59;15.60;71.80
12156;DHT22;6141;49.092;8.516;2023-08-31T04:36:48;15.60;72.30
12156;DHT22;6141;49.092;8.516;2023-08-31T04:39:36;15.60;72.60
12156;DHT22;6141;49.092;8.516;2023-08-31T04:42:25;15.50;73.20
12156;DHT22;6141;49.092;8.516;2023-08-31T04:45:13;15.40;73.10
12156;DHT22;6141;49.092;8.516;2023-08-31T04:48:03;15.30;74.00
12156;DHT22;6141;49.092;8.516;2023-08-31T04:50:56;15.30;74.20
12156;DHT22;6141;49.092;8.516;2023-08-31T04:53:44;15.30;74.00
12156;DHT22;6141;49.092;8.516;2023-08-31T04:56:33;15.30;74.70
12156;DHT22;6141;49.092;8.516;2023-08-31T04:59:21;15.20;75.10
12156;DHT22;6141;49.092;8.516;2023-08-31T05:02:10;15.20;75.30
12156;DHT22;6141;49.092;8.516;2023-08-31T05:05:00;15.20;75.80
12156;DHT22;6141;49.092;8.516;2023-08-31T05:07:48;15.20;74.60
12156;DHT22;6141;49.092;8.516;2023-08-31T05:10:36;15.30;74.90
12156;DHT22;6141;49.092;8.516;2023-08-31T05:13:25;15.60;72.80
12156;DHT22;6141;49.092;8.516;2023-08-31T05:16:14;15.50;71.90
12156;DHT22;6141;49.092;8.516;2023-08-31T05:19:02;15.50;71.70
12156;DHT22;6141;49.092;8.516;2023-08-31T05:21:52;15.40;73.40
12156;DHT22;6141;49.092;8.516;2023-08-31T05:24:40;15.40;74.10
12156;DHT22;6141;49.092;8.516;2023-08-31T05:27:29;15.50;73.50
12156;DHT22;6141;49.092;8.516;2023-08-31T05:30:17;15.40;73.80
12156;DHT22;6141;49.092;8.516;2023-08-31T05:33:06;15.50;72.60
12156;DHT22;6141;49.092;8.516;2023-08-31T05:35:54;15.50;71.70
12156;DHT22;6141;49.092;8.516;2023-08-31T05:38:44;15.60;71.90
12156;DHT22;6141;49.092;8.516;2023-08-31T05:41:32;15.50;72.70
12156;DHT22;6141;49.092;8.516;2023-08-31T05:44:22;15.70;70.90
12156;DHT22;6141;49.092;8.516;2023-08-31T05:47:10;15.70;69.40
12156;DHT22;6141;49.092;8.516;2023-08-31T05:49:59;15.70;69.20
12156;DHT22;6141;49.092;8.516;2023-08-31T05:52:47;15.50;70.10
12156;DHT22;6141;49.092;8.516;2023-08-31T05:55:37;15.50;70.00
12156;DHT22;6141;49.092;8.516;2023-08-31T05:58:25;15.60;70.80
12156;DHT22;6141;49.092;8.516;2023-08-31T06:01:13;15.60;70.20
12156;DHT22;6141;49.092;8.516;2023-08-31T06:04:02;15.60;70.10
12156;DHT22;6141;49.092;8.516;2023-08-31T06:06:50;15.60;69.40
12156;DHT22;6141;49.092;8.516;2023-08-31T06:09:41;15.80;67.90
12156;DHT22;6141;49.092;8.516;2023-08-31T06:12:31;15.80;67.30
12156;DHT22;6141;49.092;8.516;2023-08-31T06:15:19;15.80;67.10
12156;DHT22;6141;49.092;8.516;2023-08-31T06:18:07;15.70;67.70
12156;DHT22;6141;49.092;8.516;2023-08-31T06:20:56;15.90;67.20
12156;DHT22;6141;49.092;8.516;2023-08-31T06:23:44;16.10;65.70
12156;DHT22;6141;49.092;8.516;2023-08-31T06:26:33;16.20;63.90
12156;DHT22;6141;49.092;8.516;2023-08-31T06:29:23;16.00;64.70
12156;DHT22;6141;49.092;8.516;2023-08-31T06:32:11;16.10;63.70
12156;DHT22;6141;49.092;8.516;2023-08-31T06:34:59;16.10;63.40
12156;DHT22;6141;49.092;8.516;2023-08-31T06:37:48;16.10;64.50
12156;DHT22;6141;49.092;8.516;2023-08-31T06:40:37;16.30;63.70
12156;DHT22;6141;49.092;8.516;2023-08-31T06:43:26;16.40;62.70
12156;DHT22;6141;49.092;8.516;2023-08-31T06:46:16;16.50;60.40
12156;DHT22;6141;49.092;8.516;2023-08-31T06:49:11;16.30;60.80
12156;DHT22;6141;49.092;8.516;2023-08-31T06:52:00;16.00;60.70
12156;DHT22;6141;49.092;8.516;2023-08-31T06:54:52;16.10;61.10
12156;DHT22;6141;49.092;8.516;2023-08-31T06:57:42;16.30;61.50
12156;DHT22;6141;49.092;8.516;2023-08-31T07:00:31;16.50;59.20
12156;DHT22;6141;49.092;8.516;2023-08-31T07:03:21;16.60;57.40
12156;DHT22;6141;49.092;8.516;2023-08-31T07:06:13;16.70;57.60
12156;DHT22;6141;49.092;8.516;2023-08-31T07:09:02;16.80;56.20
12156;DHT22;6141;49.092;8.516;2023-08-31T07:11:52;17.00;55.70
12156;DHT22;6141;49.092;8.516;2023-08-31T07:14:40;17.30;53.30
12156;DHT22;6141;49.092;8.516;2023-08-31T07:17:29;17.30;50.40
12156;DHT22;6141;49.092;8.516;2023-08-31T07:20:19;17.60;50.80
12156;DHT22;6141;49.092;8.516;2023-08-31T07:23:07;17.70;49.30
12156;DHT22;6141;49.092;8.516;2023-08-31T07:25:56;17.60;46.80
12156;DHT22;6141;49.092;8.516;2023-08-31T07:28:47;17.70;47.30
12156;DHT22;6141;49.092;8.516;2023-08-31T07:31:35;17.90;47.50
12156;DHT22;6141;49.092;8.516;2023-08-31T07:34:24;18.10;46.70
12156;DHT22;6141;49.092;8.516;2023-08-31T07:37:13;18.10;45.30
12156;DHT22;6141;49.092;8.516;2023-08-31T07:40:02;18.30;45.10
12156;DHT22;6141;49.092;8.516;2023-08-31T07:42:55;18.30;45.50
12156;DHT22;6141;49.092;8.516;2023-08-31T07:45:43;18.30;44.80
12156;DHT22;6141;49.092;8.516;2023-08-31T07:48:32;18.50;42.40
12156;DHT22;6141;49.092;8.516;2023-08-31T07:51:20;18.60;43.10
12156;DHT22;6141;49.092;8.516;2023-08-31T07:54:19;18.70;40.80
12156;DHT22;6141;49.092;8.516;2023-08-31T07:57:07;18.90;39.30
12156;DHT22;6141;49.092;8.516;2023-08-31T07:59:56;19.10;38.60
12156;DHT22;6141;49.092;8.516;2023-08-31T08:02:45;19.10;38.20
12156;DHT22;6141;49.092;8.516;2023-08-31T08:05:33;18.80;34.40
12156;DHT22;6141;49.092;8.516;2023-08-31T08:08:22;18.40;34.30
12156;DHT22;6141;49.092;8.516;2023-08-31T08:11:11;18.60;36.90
12156;DHT22;6141;49.092;8.516;2023-08-31T08:14:18;18.70;36.30
12156;DHT22;6141;49.092;8.516;2023-08-31T08:17:07;18.80;35.30
12156;DHT22;6141;49.092;8.516;2023-08-31T08:19:55;18.80;34.50
12156;DHT22;6141;49.092;8.516;2023-08-31T08:22:43;18.80;33.80
12156;DHT22;6141;49.092;8.516;2023-08-31T08:25:32;19.10;31.30
12156;DHT22;6141;49.092;8.516;2023-08-31T08:28:22;18.90;30.20
12156;DHT22;6141;49.092;8.516;2023-08-31T08:31:11;19.00;34.20
12156;DHT22;6141;49.092;8.516;2023-08-31T08:34:00;19.00;33.30
12156;DHT22;6141;49.092;8.516;2023-08-31T08:36:48;19.40;34.50
12156;DHT22;6141;49.092;8.516;2023-08-31T08:39:37;19.40;28.90
12156;DHT22;6141;49.092;8.516;2023-08-31T08:42:26;19.00;29.80
12156;DHT22;6141;49.092;8.516;2023-08-31T08:45:20;19.20;32.60
12156;DHT22;6141;49.092;8.516;2023-08-31T08:48:13;19.30;31.20
12156;DHT22;6141;49.092;8.516;2023-08-31T08:51:03;19.30;29.00
12156;DHT22;6141;49.092;8.516;2023-08-31T08:53:52;19.70;30.70
12156;DHT22;6141;49.092;8.516;2023-08-31T08:56:41;19.60;28.00
12156;DHT22;6141;49.092;8.516;2023-08-31T08:59:30;19.60;29.00
12156;DHT22;6141;49.092;8.516;2023-08-31T09:02:20;19.80;29.70
12156;DHT22;6141;49.092;8.516;2023-08-31T09:05:09;20.00;27.90
12156;DHT22;6141;49.092;8.516;2023-08-31T09:08:01;19.90;27.40
12156;DHT22;6141;49.092;8.516;2023-08-31T09:10:50;20.10;29.40
12156;DHT22;6141;49.092;8.516;2023-08-31T09:13:38;20.50;26.50
12156;DHT22;6141;49.092;8.516;2023-08-31T09:16:28;20.30;25.80
12156;DHT22;6141;49.092;8.516;2023-08-31T09:19:22;20.30;27.70
12156;DHT22;6141;49.092;8.516;2023-08-31T09:22:10;20.30;26.80
12156;DHT22;6141;49.092;8.516;2023-08-31T09:24:59;20.40;28.10
12156;DHT22;6141;49.092;8.516;2023-08-31T09:27:48;20.40;26.30
12156;DHT22;6141;49.092;8.516;2023-08-31T09:30:37;20.70;26.60
12156;DHT22;6141;49.092;8.516;2023-08-31T09:33:27;21.00;25.80
12156;DHT22;6141;49.092;8.516;2023-08-31T09:36:17;20.70;22.70
12156;DHT22;6141;49.092;8.516;2023-08-31T09:39:06;20.30;23.20
12156;DHT22;6141;49.092;8.516;2023-08-31T09:41:55;20.30;20.90
12156;DHT22;6141;49.092;8.516;2023-08-31T09:44:49;20.10;23.20
12156;DHT22;6141;49.092;8.516;2023-08-31T09:47:38;20.10;22.60
12156;DHT22;6141;49.092;8.516;2023-08-31T09:50:28;19.90;23.40
12156;DHT22;6141;49.092;8.516;2023-08-31T09:53:20;20.00;22.00
12156;DHT22;6141;49.092;8.516;2023-08-31T09:56:13;19.90;21.20
12156;DHT22;6141;49.092;8.516;2023-08-31T09:59:05;19.90;22.00
12156;DHT22;6141;49.092;8.516;2023-08-31T10:01:53;20.10;23.60
12156;DHT22;6141;49.092;8.516;2023-08-31T10:04:44;20.00;22.80
12156;DHT22;6141;49.092;8.516;2023-08-31T10:07:33;20.00;22.80
12156;DHT22;6141;49.092;8.516;2023-08-31T10:10:23;20.00;22.90
12156;DHT22;6141;49.092;8.516;2023-08-31T10:13:12;19.90;24.10
12156;DHT22;6141;49.092;8.516;2023-08-31T10:16:04;19.60;22.20
12156;DHT22;6141;49.092;8.516;2023-08-31T10:18:52;19.70;24.00
12156;DHT22;6141;49.092;8.516;2023-08-31T10:21:41;19.70;23.90
12156;DHT22;6141;49.092;8.516;2023-08-31T10:25:04;19.80;25.10
12156;DHT22;6141;49.092;8.516;2023-08-31T10:27:55;20.20;22.70
12156;DHT22;6141;49.092;8.516;2023-08-31T10:31:00;20.30;24.40
12156;DHT22;6141;49.092;8.516;2023-08-31T10:33:56;20.00;20.50
12156;DHT22;6141;49.092;8.516;2023-08-31T10:36:46;19.80;21.90
12156;DHT22;6141;49.092;8.516;2023-08-31T10:39:47;19.50;22.20
12156;DHT22;6141;49.092;8.516;2023-08-31T10:42:42;19.40;22.80
12156;DHT22;6141;49.092;8.516;2023-08-31T10:45:43;19.50;23.20
12156;DHT22;6141;49.092;8.516;2023-08-31T10:48:53;19.50;22.60
12156;DHT22;6141;49.092;8.516;2023-08-31T10:51:53;19.30;23.60
12156;DHT22;6141;49.092;8.516;2023-08-31T10:54:42;19.30;24.40
12156;DHT22;6141;49.092;8.516;2023-08-31T10:57:35;19.30;24.30
12156;DHT22;6141;49.092;8.516;2023-08-31T11:00:47;19.20;23.00
12156;DHT22;6141;49.092;8.516;2023-08-31T11:03:59;19.10;23.50
12156;DHT22;6141;49.092;8.516;2023-08-31T11:06:48;19.10;23.50
12156;DHT22;6141;49.092;8.516;2023-08-31T11:09:37;19.20;23.60
12156;DHT22;6141;49.092;8.516;2023-08-31T11:12:25;19.60;23.90
12156;DHT22;6141;49.092;8.516;2023-08-31T11:15:15;19.80;20.70
12156;DHT22;6141;49.092;8.516;2023-08-31T11:18:08;19.90;22.40
12156;DHT22;6141;49.092;8.516;2023-08-31T11:20:56;19.90;22.00
12156;DHT22;6141;49.092;8.516;2023-08-31T11:23:47;20.00;20.60
12156;DHT22;6141;49.092;8.516;2023-08-31T11:26:37;19.80;21.70
12156;DHT22;6141;49.092;8.516;2023-08-31T11:29:26;19.80;22.60
12156;DHT22;6141;49.092;8.516;2023-08-31T11:32:15;19.70;22.80
12156;DHT22;6141;49.092;8.516;2023-08-31T11:35:05;19.90;23.90
12156;DHT22;6141;49.092;8.516;2023-08-31T11:37:56;19.90;22.20
12156;DHT22;6141;49.092;8.516;2023-08-31T11:40:45;20.10;23.30
12156;DHT22;6141;49.092;8.516;2023-08-31T11:43:34;20.10;22.40
12156;DHT22;6141;49.092;8.516;2023-08-31T11:46:22;20.20;24.30
12156;DHT22;6141;49.092;8.516;2023-08-31T11:49:12;20.30;24.00
12156;DHT22;6141;49.092;8.516;2023-08-31T11:52:02;20.40;22.60
12156;DHT22;6141;49.092;8.516;2023-08-31T11:54:53;20.20;24.20
12156;DHT22;6141;49.092;8.516;2023-08-31T11:57:48;20.30;23.30
12156;DHT22;6141;49.092;8.516;2023-08-31T12:00:38;20.30;23.30
12156;DHT22;6141;49.092;8.516;2023-08-31T12:03:27;20.40;23.40
12156;DHT22;6141;49.092;8.516;2023-08-31T12:06:35;20.40;22.50
12156;DHT22;6141;49.092;8.516;2023-08-31T12:09:28;20.50;22.20
12156;DHT22;6141;49.092;8.516;2023-08-31T12:12:25;20.30;21.80
12156;DHT22;6141;49.092;8.516;2023-08-31T12:15:15;20.30;23.00
12156;DHT22;6141;49.092;8.516;2023-08-31T12:18:08;20.40;23.50
12156;DHT22;6141;49.092;8.516;2023-08-31T12:21:00;20.50;23.00
12156;DHT22;6141;49.092;8.516;2023-08-31T12:23:57;20.60;23.30
12156;DHT22;6141;49.092;8.516;2023-08-31T12:26:51;20.70;23.40
12156;DHT22;6141;49.092;8.516;2023-08-31T12:29:43;20.50;20.80
12156;DHT22;6141;49.092;8.516;2023-08-31T12:32:36;20.30;22.80
12156;DHT22;6141;49.092;8.516;2023-08-31T12:35:25;20.40;24.10
12156;DHT22;6141;49.092;8.516;2023-08-31T12:38:17;20.40;22.00
12156;DHT22;6141;49.092;8.516;2023-08-31T12:41:10;20.20;22.90
12156;DHT22;6141;49.092;8.516;2023-08-31T12:44:03;20.30;23.70
12156;DHT22;6141;49.092;8.516;2023-08-31T12:46:52;20.20;23.30
12156;DHT22;6141;49.092;8.516;2023-08-31T12:49:41;20.60;24.70
12156;DHT22;6141;49.092;8.516;2023-08-31T12:52:31;20.80;23.30
12156;DHT22;6141;49.092;8.516;2023-08-31T12:55:23;20.90;22.70
12156;DHT22;6141;49.092;8.516;2023-08-31T12:58:14;20.90;22.40
12156;DHT22;6141;49.092;8.516;2023-08-31T13:01:13;20.90;23.80
12156;DHT22;6141;49.092;8.516;2023-08-31T13:04:02;20.80;22.60
12156;DHT22;6141;49.092;8.516;2023-08-31T13:06:52;20.60;23.10
12156;DHT22;6141;49.092;8.516;2023-08-31T13:09:42;20.60;23.50
12156;DHT22;6141;49.092;8.516;2023-08-31T13:12:35;20.50;24.00
12156;DHT22;6141;49.092;8.516;2023-08-31T13:15:24;20.60;23.60
12156;DHT22;6141;49.092;8.516;2023-08-31T13:18:14;20.90;22.70
12156;DHT22;6141;49.092;8.516;2023-08-31T13:21:04;21.00;23.70
12156;DHT22;6141;49.092;8.516;2023-08-31T13:23:54;21.00;22.50
12156;DHT22;6141;49.092;8.516;2023-08-31T13:26:46;21.10;22.00
12156;DHT22;6141;49.092;8.516;2023-08-31T13:29:40;21.00;21.00
12156;DHT22;6141;49.092;8.516;2023-08-31T13:32:33;20.90;22.00
12156;DHT22;6141;49.092;8.516;2023-08-31T13:35:36;20.70;22.70
12156;DHT22;6141;49.092;8.516;2023-08-31T13:38:25;20.60;21.40
12156;DHT22;6141;49.092;8.516;2023-08-31T13:41:25;20.80;21.50
12156;DHT22;6141;49.092;8.516;2023-08-31T13:44:19;21.00;19.70
12156;DHT22;6141;49.092;8.516;2023-08-31T13:47:07;20.90;19.60
12156;DHT22;6141;49.092;8.516;2023-08-31T13:49:56;20.70;19.90
12156;DHT22;6141;49.092;8.516;2023-08-31T13:52:46;20.70;21.70
12156;DHT22;6141;49.092;8.516;2023-08-31T13:55:34;20.50;20.50
12156;DHT22;6141;49.092;8.516;2023-08-31T13:58:23;20.50;22.10
12156;DHT22;6141;49.092;8.516;2023-08-31T14:01:15;20.60;21.80
12156;DHT22;6141;49.092;8.516;2023-08-31T14:04:04;20.50;22.10
12156;DHT22;6141;49.092;8.516;2023-08-31T14:06:53;20.30;22.20
12156;DHT22;6141;49.092;8.516;2023-08-31T14:09:42;20.30;22.80
12156;DHT22;6141;49.092;8.516;2023-08-31T14:12:31;20.30;22.70
12156;DHT22;6141;49.092;8.516;2023-08-31T14:27:27;20.10;23.80
12156;DHT22;6141;49.092;8.516;2023-08-31T14:30:17;20.30;24.30
12156;DHT22;6141;49.092;8.516;2023-08-31T14:33:05;20.50;24.60
12156;DHT22;6141;49.092;8.516;2023-08-31T14:35:54;20.50;24.60
12156;DHT22;6141;49.092;8.516;2023-08-31T14:38:42;20.70;24.70
12156;DHT22;6141;49.092;8.516;2023-08-31T14:41:32;20.90;24.00
12156;DHT22;6141;49.092;8.516;2023-08-31T14:44:22;20.90;24.10
12156;DHT22;6141;49.092;8.516;2023-08-31T14:47:10;20.60;23.70
12156;DHT22;6141;49.092;8.516;2023-08-31T14:49:59;20.70;22.10
12156;DHT22;6141;49.092;8.516;2023-08-31T14:52:48;20.60;22.70
12156;DHT22;6141;49.092;8.516;2023-08-31T14:55:37;20.50;23.80
12156;DHT22;6141;49.092;8.516;2023-08-31T14:58:25;20.50;23.50
12156;DHT22;6141;49.092;8.516;2023-08-31T15:01:16;20.70;24.50
12156;DHT22;6141;49.092;8.516;2023-08-31T15:04:04;20.90;24.10
12156;DHT22;6141;49.092;8.516;2023-08-31T15:06:53;20.70;23.30
12156;DHT22;6141;49.092;8.516;2023-08-31T15:09:43;20.80;23.70
12156;DHT22;6141;49.092;8.516;2023-08-31T15:12:32;20.80;24.40
12156;DHT22;6141;49.092;8.516;2023-08-31T15:15:22;20.90;22.90
12156;DHT22;6141;49.092;8.516;2023-08-31T15:18:12;20.70;23.50
12156;DHT22;6141;49.092;8.516;2023-08-31T15:21:01;20.70;27.20
12156;DHT22;6141;49.092;8.516;2023-08-31T15:23:49;20.90;30.00
12156;DHT22;6141;49.092;8.516;2023-08-31T15:26:38;20.60;29.80
12156;DHT22;6141;49.092;8.516;2023-08-31T15:29:27;20.30;32.70
12156;DHT22;6141;49.092;8.516;2023-08-31T15:32:16;20.50;29.80
12156;DHT22;6141;49.092;8.516;2023-08-31T15:35:07;20.60;31.50
12156;DHT22;6141;49.092;8.516;2023-08-31T15:37:58;20.60;33.60
12156;DHT22;6141;49.092;8.516;2023-08-31T15:40:48;20.80;33.00
12156;DHT22;6141;49.092;8.516;2023-08-31T15:43:40;21.10;32.10
12156;DHT22;6141;49.092;8.516;2023-08-31T15:46:31;21.00;31.30
12156;DHT22;6141;49.092;8.516;2023-08-31T15:49:26;21.10;30.90
12156;DHT22;6141;49.092;8.516;2023-08-31T15:52:19;21.30;28.80
12156;DHT22;6141;49.092;8.516;2023-08-31T15:55:08;21.20;30.30
12156;DHT22;6141;49.092;8.516;2023-08-31T15:58:01;21.20;31.10
12156;DHT22;6141;49.092;8.516;2023-08-31T16:00:51;21.00;29.20
12156;DHT22;6141;49.092;8.516;2023-08-31T16:03:47;20.90;30.00
12156;DHT22;6141;49.092;8.516;2023-08-31T16:06:39;20.80;27.80
12156;DHT22;6141;49.092;8.516;2023-08-31T16:09:33;20.60;29.20
12156;DHT22;6141;49.092;8.516;2023-08-31T16:12:22;20.30;27.50
12156;DHT22;6141;49.092;8.516;2023-08-31T16:15:11;20.30;28.60
12156;DHT22;6141;49.092;8.516;2023-08-31T16:17:59;20.20;27.40
12156;DHT22;6141;49.092;8.516;2023-08-31T16:20:47;20.20;27.10
12156;DHT22;6141;49.092;8.516;2023-08-31T16:23:36;20.10;28.40
12156;DHT22;6141;49.092;8.516;2023-08-31T16:26:25;20.10;28.00
12156;DHT22;6141;49.092;8.516;2023-08-31T16:29:14;20.20;28.50
12156;DHT22;6141;49.092;8.516;2023-08-31T16:32:04;20.10;27.50
12156;DHT22;6141;49.092;8.516;2023-08-31T16:34:52;20.00;28.10
12156;DHT22;6141;49.092;8.516;2023-08-31T16:37:41;19.90;28.60
12156;DHT22;6141;49.092;8.516;2023-08-31T16:40:29;20.00;28.00
12156;DHT22;6141;49.092;8.516;2023-08-31T16:43:24;20.00;28.70
12156;DHT22;6141;49.092;8.516;2023-08-31T16:46:16;19.80;27.10
12156;DHT22;6141;49.092;8.516;2023-08-31T16:49:07;19.80;29.10
12156;DHT22;6141;49.092;8.516;2023-08-31T16:51:55;19.60;28.70
12156;DHT22;6141;49.092;8.516;2023-08-31T16:54:44;19.50;29.50
12156;DHT22;6141;49.092;8.516;2023-08-31T16:57:32;19.60;28.50
12156;DHT22;6141;49.092;8.516;2023-08-31T17:00:27;19.70;29.10
12156;DHT22;6141;49.092;8.516;2023-08-31T17:03:16;19.70;28.80
12156;DHT22;6141;49.092;8.516;2023-08-31T17:06:06;19.80;28.10
12156;DHT22;6141;49.092;8.516;2023-08-31T17:08:55;20.00;29.40
12156;DHT22;6141;49.092;8.516;2023-08-31T17:11:45;20.10;28.50
12156;DHT22;6141;49.092;8.516;2023-08-31T17:14:40;20.20;28.20
12156;DHT22;6141;49.092;8.516;2023-08-31T17:17:33;20.20;27.90
12156;DHT22;6141;49.092;8.516;2023-08-31T17:20:22;20.20;28.40
12156;DHT22;6141;49.092;8.516;2023-08-31T17:23:10;20.30;27.60
12156;DHT22;6141;49.092;8.516;2023-08-31T17:25:59;20.50;27.00
12156;DHT22;6141;49.092;8.516;2023-08-31T17:28:47;20.30;28.80
12156;DHT22;6141;49.092;8.516;2023-08-31T17:31:36;20.40;29.70
12156;DHT22;6141;49.092;8.516;2023-08-31T17:34:25;20.10;29.40
12156;DHT22;6141;49.092;8.516;2023-08-31T17:37:14;20.20;29.90
12156;DHT22;6141;49.092;8.516;2023-08-31T17:40:04;20.30;31.00
12156;DHT22;6141;49.092;8.516;2023-08-31T17:42:54;20.40;31.10
12156;DHT22;6141;49.092;8.516;2023-08-31T17:45:42;20.30;32.60
12156;DHT22;6141;49.092;8.516;2023-08-31T17:48:32;20.30;34.10
12156;DHT22;6141;49.092;8.516;2023-08-31T17:51:23;20.40;33.30
12156;DHT22;6141;49.092;8.516;2023-08-31T17:54:12;20.30;33.00
12156;DHT22;6141;49.092;8.516;2023-08-31T17:57:00;20.30;32.80
12156;DHT22;6141;49.092;8.516;2023-08-31T17:59:49;20.20;32.00
12156;DHT22;6141;49.092;8.516;2023-08-31T18:02:38;20.00;32.30
12156;DHT22;6141;49.092;8.516;2023-08-31T18:05:26;19.80;31.40
12156;DHT22;6141;49.092;8.516;2023-08-31T18:08:17;19.50;31.30
12156;DHT22;6141;49.092;8.516;2023-08-31T18:11:08;19.10;32.70
12156;DHT22;6141;49.092;8.516;2023-08-31T18:13:57;18.90;34.60
12156;DHT22;6141;49.092;8.516;2023-08-31T18:16:45;18.90;35.20
12156;DHT22;6141;49.092;8.516;2023-08-31T18:19:34;18.90;34.60
12156;DHT22;6141;49.092;8.516;2023-08-31T18:22:23;18.90;37.30
12156;DHT22;6141;49.092;8.516;2023-08-31T18:25:15;18.90;37.70
12156;DHT22;6141;49.092;8.516;2023-08-31T18:28:03;18.80;39.20